Pellston Regional Airport of Emmet County Airport
KPLN : now visible

Airfield :











YOU CAN JOIN US ON...

 
LOGIN :

Register | Disclaimer

   EN    FR    IT 

 









Legend :    VFR   Marginal VFR   IFR   Intensive IFR   Very Intensive IFR
Visi :
Ceiling :
>= 8 km
>= 3000ft
5 to 8 km
1000 to 3000 ft
1500m to 5 km
500 to 1000 ft
800 to 1500m
200 to 500 ft
< 800m
< 200 ft
Symbols :   Thunderstorms  Fog  Heavy snow  Heavy precipitations  Wind > 20 kt






- Airport Elevation : 721 ft
- IATA code : PLN


KPLN - Pellston Regional of Emmet County

CURRENT METAR :
  • 311854Z AUTO 30013KT 9SM SCT028 BKN055 22/16 A2990 RMK AO2 SLP125 T02220161

EXPIRED METARs :
  • 311817Z AUTO 31011KT 8SM BKN021 BKN033 BKN060 22/17 A2990 RMK AO2 T02170167
  • 311754Z AUTO 28009G18KT 8SM FEW019 BKN038 22/18 A2990 RMK AO2 RAB1659E10 SLP124 P0000 60014 T02170178 10217 20161 51004
  • 311728Z AUTO 29010G21KT 7SM FEW013 SCT021 OVC038 20/17 A2990 RMK AO2 RAB1659E10 P0000 T02000172
  • 311715Z AUTO 30012G20KT 7SM SCT013 BKN018 OVC034 21/18 A2990 RMK AO2 RAB1659E10 P0000 T02060183
  • 311705Z AUTO 30010G18KT 270V330 7SM -RA BKN013 BKN020 BKN048 21/18 A2990 RMK AO2 RAB1659 P0000 T02060183
  • 311654Z AUTO 28006KT 7SM SCT011 BKN017 OVC045 21/19 A2990 RMK AO2 RAB1556E52 SLP124 P0010 T02110194
  • 311642Z AUTO 30007KT 5SM -RA BR SCT012 BKN021 OVC038 19/18 A2990 RMK AO2 RAB1556 CIG 015V024 P0010 T01940183
  • 311631Z AUTO 31006KT 3SM -RA BR SCT010 BKN030 OVC045 19/18 A2990 RMK AO2 LTG DSNT E RAB1556 P0009 T01890178
  • 311622Z AUTO 28005KT 1 3/4SM +RA BR FEW012 BKN030 OVC046 19/18 A2990 RMK AO2 LTG DSNT E RAB1556 P0008 T01890178

TAF KPLN
Valid from the 31 at 18:00 until the 01 at 18:00 UTC


311829Z 3118/0118 31011KT P6SM BKN021 BKN035 BKN060
FM312000 27009KT P6SM BKN060
FM010300 31006KT P6SM VCSH SCT050 BKN090
FM010700 31006KT P6SM BKN020
FM011000 33007KT P6SM VCSH BKN016
FM011600 36009KT P6SM BKN022
KZMP FIR / North America



MET'MAP, your aeronautical weather chart ! - Copyright ORBIFLY December 2007 - Disclaimer

ORBIFLY MET'MAP TEAM :

Programming & Development : Alexandra Zaïnal
Concept & original design : Baudouin d'Aumeries
Assistance for programming : Marc-Olivier Méhu
Technical & hardware support : Manuel Goepfert

Contact : metmap@orbifly.com




SOURCES & CREDITS :

   NOAA       Earth
Advisory